Overview Statistics Trail Chart Weather Telemetry Raw packets
 

This is the latest recevied weather packets stored in our database for station/object OM5ZU-10. If no packets are shown the sender has not sent any weather packets the latest 10 day(s).

<< 13 14 15 16 17 18 19 >>
Time Temp. Humidity Pressure Rain* Wind** Luminosity Snow
1788249950 24.44° C 49% 1019.8 hPa - - - -
1788249050 25° C 49% 1019.8 hPa - - - -
1788248150 24.44° C 50% 1019.7 hPa - - - -
1788247249 24.44° C 48% 1019.7 hPa - - - -
1788246349 23.33° C 52% 1019.5 hPa - - - -
1788245449 23.33° C 53% 1019.3 hPa - - - -
1788244549 22.78° C 56% 1019.4 hPa - - - -
1788243649 21.67° C 60% 1019.1 hPa - - - -
1788242749 21.67° C 63% 1019.1 hPa - - - -
1788241848 21.11° C 66% 1018.9 hPa - - - -
1788240948 20.56° C 68% 1018.7 hPa - - - -
1788240048 19.44° C 70% 1018.7 hPa - - - -
1788239148 19.44° C 69% 1018.3 hPa - - - -
1788238248 17.78° C 77% 1018.2 hPa - - - -
1788237348 16.11° C 82% 1018.2 hPa - - - -
1788236447 15.56° C 84% 1018.2 hPa - - - -
1788235547 14.44° C 88% 1018 hPa - - - -
1788234647 13.89° C 93% 1017.7 hPa - - - -
1788233747 13.89° C 94% 1017.6 hPa - - - -
1788232847 13.89° C 94% 1017.5 hPa - - - -
1788231947 14.44° C 93% 1017.5 hPa - - - -
1788231046 14.44° C 93% 1017.5 hPa - - - -
1788230146 15° C 92% 1017.4 hPa - - - -
1788229246 15.56° C 89% 1017.3 hPa - - - -
1788228346 15.56° C 90% 1017.6 hPa - - - -

* Rain since midnight (hover to see other rain measurements)
** Current wind speed in m/s (hover to see current wind gust speed)